sensor_id;sensor_type;location;lat;lon;timestamp;P1;durP1;ratioP1;P2;durP2;ratioP2
43996;SDS011;34318;45.818;15.964;2024-02-26T00:01:31;18.95;;;15.15;;
43996;SDS011;34318;45.818;15.964;2024-02-26T00:04:00;22.55;;;14.50;;
43996;SDS011;34318;45.818;15.964;2024-02-26T00:06:29;18.45;;;14.05;;
43996;SDS011;34318;45.818;15.964;2024-02-26T00:08:57;21.30;;;14.20;;
43996;SDS011;34318;45.818;15.964;2024-02-26T00:11:24;25.38;;;15.20;;
43996;SDS011;34318;45.818;15.964;2024-02-26T00:13:51;21.67;;;14.68;;
43996;SDS011;34318;45.818;15.964;2024-02-26T00:16:18;20.63;;;13.45;;
43996;SDS011;34318;45.818;15.964;2024-02-26T00:18:46;25.08;;;14.32;;
43996;SDS011;34318;45.818;15.964;2024-02-26T00:21:16;18.75;;;13.90;;
43996;SDS011;34318;45.818;15.964;2024-02-26T00:23:43;15.57;;;13.38;;
43996;SDS011;34318;45.818;15.964;2024-02-26T00:26:10;20.52;;;13.40;;
43996;SDS011;34318;45.818;15.964;2024-02-26T00:28:37;20.17;;;12.95;;
43996;SDS011;34318;45.818;15.964;2024-02-26T00:31:05;21.73;;;14.00;;
43996;SDS011;34318;45.818;15.964;2024-02-26T00:33:32;21.90;;;13.98;;
43996;SDS011;34318;45.818;15.964;2024-02-26T00:35:59;16.90;;;13.25;;
43996;SDS011;34318;45.818;15.964;2024-02-26T00:38:27;18.50;;;13.05;;
43996;SDS011;34318;45.818;15.964;2024-02-26T00:40:54;16.55;;;12.48;;
43996;SDS011;34318;45.818;15.964;2024-02-26T00:43:21;16.48;;;12.50;;
43996;SDS011;34318;45.818;15.964;2024-02-26T00:45:48;16.30;;;12.63;;
43996;SDS011;34318;45.818;15.964;2024-02-26T00:48:16;17.58;;;12.60;;
43996;SDS011;34318;45.818;15.964;2024-02-26T00:50:43;23.10;;;13.55;;
43996;SDS011;34318;45.818;15.964;2024-02-26T00:53:10;16.38;;;12.20;;
43996;SDS011;34318;45.818;15.964;2024-02-26T00:55:37;15.40;;;12.55;;
43996;SDS011;34318;45.818;15.964;2024-02-26T00:58:05;15.80;;;11.48;;
43996;SDS011;34318;45.818;15.964;2024-02-26T01:00:32;16.58;;;13.57;;
43996;SDS011;34318;45.818;15.964;2024-02-26T01:02:59;18.27;;;11.98;;
43996;SDS011;34318;45.818;15.964;2024-02-26T01:05:27;13.10;;;10.88;;
43996;SDS011;34318;45.818;15.964;2024-02-26T01:07:54;15.52;;;12.27;;
43996;SDS011;34318;45.818;15.964;2024-02-26T01:10:21;14.05;;;10.98;;
43996;SDS011;34318;45.818;15.964;2024-02-26T01:12:48;16.90;;;11.80;;
43996;SDS011;34318;45.818;15.964;2024-02-26T01:15:16;14.88;;;11.63;;
43996;SDS011;34318;45.818;15.964;2024-02-26T01:17:45;14.95;;;10.95;;
43996;SDS011;34318;45.818;15.964;2024-02-26T01:20:12;15.00;;;11.35;;
43996;SDS011;34318;45.818;15.964;2024-02-26T01:22:40;14.57;;;10.10;;
43996;SDS011;34318;45.818;15.964;2024-02-26T01:25:07;13.85;;;11.13;;
43996;SDS011;34318;45.818;15.964;2024-02-26T01:27:36;14.40;;;11.98;;
43996;SDS011;34318;45.818;15.964;2024-02-26T01:30:03;12.27;;;10.98;;
43996;SDS011;34318;45.818;15.964;2024-02-26T01:32:31;13.80;;;10.80;;
43996;SDS011;34318;45.818;15.964;2024-02-26T01:34:59;15.80;;;10.45;;
43996;SDS011;34318;45.818;15.964;2024-02-26T01:37:26;13.52;;;11.50;;
43996;SDS011;34318;45.818;15.964;2024-02-26T01:39:55;12.00;;;10.30;;
43996;SDS011;34318;45.818;15.964;2024-02-26T01:42:23;12.82;;;10.07;;
43996;SDS011;34318;45.818;15.964;2024-02-26T01:44:50;14.38;;;11.20;;
43996;SDS011;34318;45.818;15.964;2024-02-26T01:47:17;12.07;;;10.48;;
43996;SDS011;34318;45.818;15.964;2024-02-26T01:49:48;11.93;;;10.73;;
43996;SDS011;34318;45.818;15.964;2024-02-26T01:52:15;12.90;;;11.05;;
43996;SDS011;34318;45.818;15.964;2024-02-26T01:54:44;11.13;;;10.02;;
43996;SDS011;34318;45.818;15.964;2024-02-26T01:57:12;12.73;;;10.50;;
43996;SDS011;34318;45.818;15.964;2024-02-26T01:59:40;12.50;;;10.80;;
43996;SDS011;34318;45.818;15.964;2024-02-26T02:02:08;10.98;;;9.65;;
43996;SDS011;34318;45.818;15.964;2024-02-26T02:04:37;13.32;;;9.80;;
43996;SDS011;34318;45.818;15.964;2024-02-26T02:07:04;11.27;;;9.57;;
43996;SDS011;34318;45.818;15.964;2024-02-26T02:09:31;10.77;;;9.68;;
43996;SDS011;34318;45.818;15.964;2024-02-26T02:11:59;11.00;;;9.90;;
43996;SDS011;34318;45.818;15.964;2024-02-26T02:14:27;12.85;;;10.20;;
43996;SDS011;34318;45.818;15.964;2024-02-26T02:16:54;12.27;;;9.23;;
43996;SDS011;34318;45.818;15.964;2024-02-26T02:19:22;12.25;;;9.13;;
43996;SDS011;34318;45.818;15.964;2024-02-26T02:21:49;10.40;;;9.40;;
43996;SDS011;34318;45.818;15.964;2024-02-26T02:24:16;11.45;;;9.48;;
43996;SDS011;34318;45.818;15.964;2024-02-26T02:26:43;12.85;;;10.15;;
43996;SDS011;34318;45.818;15.964;2024-02-26T02:29:11;10.25;;;8.85;;
43996;SDS011;34318;45.818;15.964;2024-02-26T02:31:38;11.60;;;9.30;;
43996;SDS011;34318;45.818;15.964;2024-02-26T02:34:06;11.57;;;9.38;;
43996;SDS011;34318;45.818;15.964;2024-02-26T02:36:33;11.73;;;9.43;;
43996;SDS011;34318;45.818;15.964;2024-02-26T02:39:00;10.30;;;9.30;;
43996;SDS011;34318;45.818;15.964;2024-02-26T02:41:28;10.52;;;9.13;;
43996;SDS011;34318;45.818;15.964;2024-02-26T02:43:56;10.60;;;9.50;;
43996;SDS011;34318;45.818;15.964;2024-02-26T02:46:23;12.02;;;9.68;;
43996;SDS011;34318;45.818;15.964;2024-02-26T02:48:51;10.95;;;9.88;;
43996;SDS011;34318;45.818;15.964;2024-02-26T02:51:18;10.20;;;8.82;;
43996;SDS011;34318;45.818;15.964;2024-02-26T02:53:45;9.80;;;8.80;;
43996;SDS011;34318;45.818;15.964;2024-02-26T02:56:13;10.55;;;8.85;;
43996;SDS011;34318;45.818;15.964;2024-02-26T02:58:40;9.18;;;8.27;;
43996;SDS011;34318;45.818;15.964;2024-02-26T03:01:07;9.05;;;8.15;;
43996;SDS011;34318;45.818;15.964;2024-02-26T03:03:34;9.30;;;8.07;;
43996;SDS011;34318;45.818;15.964;2024-02-26T03:06:03;10.95;;;8.77;;
43996;SDS011;34318;45.818;15.964;2024-02-26T03:08:31;9.68;;;8.68;;
43996;SDS011;34318;45.818;15.964;2024-02-26T03:10:58;9.60;;;8.63;;
43996;SDS011;34318;45.818;15.964;2024-02-26T03:13:26;8.77;;;7.93;;
43996;SDS011;34318;45.818;15.964;2024-02-26T03:15:53;9.23;;;7.95;;
43996;SDS011;34318;45.818;15.964;2024-02-26T03:18:20;9.43;;;8.43;;
43996;SDS011;34318;45.818;15.964;2024-02-26T03:20:48;8.68;;;7.88;;
43996;SDS011;34318;45.818;15.964;2024-02-26T03:23:16;11.63;;;8.45;;
43996;SDS011;34318;45.818;15.964;2024-02-26T03:25:44;10.20;;;7.63;;
43996;SDS011;34318;45.818;15.964;2024-02-26T03:28:14;9.30;;;8.35;;
43996;SDS011;34318;45.818;15.964;2024-02-26T03:30:41;9.02;;;8.13;;
43996;SDS011;34318;45.818;15.964;2024-02-26T03:33:09;8.82;;;7.68;;
43996;SDS011;34318;45.818;15.964;2024-02-26T03:35:36;10.10;;;7.85;;
43996;SDS011;34318;45.818;15.964;2024-02-26T03:38:03;9.23;;;8.32;;
43996;SDS011;34318;45.818;15.964;2024-02-26T03:40:31;9.10;;;8.20;;
43996;SDS011;34318;45.818;15.964;2024-02-26T03:42:58;9.40;;;7.95;;
43996;SDS011;34318;45.818;15.964;2024-02-26T03:45:26;10.23;;;7.53;;
43996;SDS011;34318;45.818;15.964;2024-02-26T03:47:54;8.98;;;8.07;;
43996;SDS011;34318;45.818;15.964;2024-02-26T03:50:23;8.55;;;7.65;;
43996;SDS011;34318;45.818;15.964;2024-02-26T03:52:50;8.38;;;7.57;;
43996;SDS011;34318;45.818;15.964;2024-02-26T03:55:17;8.98;;;8.18;;
43996;SDS011;34318;45.818;15.964;2024-02-26T03:57:51;9.82;;;8.18;;
43996;SDS011;34318;45.818;15.964;2024-02-26T04:00:18;9.27;;;7.28;;
43996;SDS011;34318;45.818;15.964;2024-02-26T04:02:48;9.63;;;7.50;;
43996;SDS011;34318;45.818;15.964;2024-02-26T04:05:15;8.20;;;7.40;;
43996;SDS011;34318;45.818;15.964;2024-02-26T04:07:43;8.95;;;7.15;;
43996;SDS011;34318;45.818;15.964;2024-02-26T04:10:10;9.20;;;7.47;;
43996;SDS011;34318;45.818;15.964;2024-02-26T04:12:38;7.32;;;6.63;;
43996;SDS011;34318;45.818;15.964;2024-02-26T04:15:06;8.10;;;7.18;;
43996;SDS011;34318;45.818;15.964;2024-02-26T04:17:33;7.57;;;6.88;;
43996;SDS011;34318;45.818;15.964;2024-02-26T04:20:01;7.95;;;7.15;;
43996;SDS011;34318;45.818;15.964;2024-02-26T04:22:28;7.25;;;6.55;;
43996;SDS011;34318;45.818;15.964;2024-02-26T04:24:55;7.70;;;7.00;;
43996;SDS011;34318;45.818;15.964;2024-02-26T04:27:22;8.43;;;7.63;;
43996;SDS011;34318;45.818;15.964;2024-02-26T04:29:50;9.18;;;7.15;;
43996;SDS011;34318;45.818;15.964;2024-02-26T04:32:17;8.95;;;7.40;;
43996;SDS011;34318;45.818;15.964;2024-02-26T04:34:45;7.88;;;7.07;;
43996;SDS011;34318;45.818;15.964;2024-02-26T04:37:12;7.93;;;7.13;;
43996;SDS011;34318;45.818;15.964;2024-02-26T04:39:39;7.93;;;7.03;;
43996;SDS011;34318;45.818;15.964;2024-02-26T04:42:06;7.63;;;6.82;;
43996;SDS011;34318;45.818;15.964;2024-02-26T04:44:34;8.65;;;7.32;;
43996;SDS011;34318;45.818;15.964;2024-02-26T04:47:01;7.28;;;6.55;;
43996;SDS011;34318;45.818;15.964;2024-02-26T04:49:28;7.18;;;6.47;;
43996;SDS011;34318;45.818;15.964;2024-02-26T04:51:58;9.13;;;6.63;;
43996;SDS011;34318;45.818;15.964;2024-02-26T04:54:26;7.80;;;7.00;;
43996;SDS011;34318;45.818;15.964;2024-02-26T04:56:53;7.72;;;6.93;;
43996;SDS011;34318;45.818;15.964;2024-02-26T04:59:20;7.32;;;6.60;;
43996;SDS011;34318;45.818;15.964;2024-02-26T05:01:47;7.30;;;6.60;;
43996;SDS011;34318;45.818;15.964;2024-02-26T05:04:15;7.35;;;6.30;;
43996;SDS011;34318;45.818;15.964;2024-02-26T05:06:42;7.03;;;6.32;;
43996;SDS011;34318;45.818;15.964;2024-02-26T05:09:09;7.22;;;6.20;;
43996;SDS011;34318;45.818;15.964;2024-02-26T05:11:37;8.68;;;6.95;;
43996;SDS011;34318;45.818;15.964;2024-02-26T05:14:07;8.10;;;6.63;;
43996;SDS011;34318;45.818;15.964;2024-02-26T05:16:34;8.13;;;6.97;;
43996;SDS011;34318;45.818;15.964;2024-02-26T05:19:02;7.43;;;6.72;;
43996;SDS011;34318;45.818;15.964;2024-02-26T05:21:29;7.03;;;6.35;;
43996;SDS011;34318;45.818;15.964;2024-02-26T05:23:57;8.02;;;6.88;;
43996;SDS011;34318;45.818;15.964;2024-02-26T05:26:24;7.45;;;6.07;;
43996;SDS011;34318;45.818;15.964;2024-02-26T05:28:51;6.65;;;5.60;;
43996;SDS011;34318;45.818;15.964;2024-02-26T05:31:18;7.80;;;6.50;;
43996;SDS011;34318;45.818;15.964;2024-02-26T05:33:46;7.60;;;6.53;;
43996;SDS011;34318;45.818;15.964;2024-02-26T05:36:20;8.75;;;6.40;;
43996;SDS011;34318;45.818;15.964;2024-02-26T05:38:49;7.23;;;6.53;;
43996;SDS011;34318;45.818;15.964;2024-02-26T05:41:16;9.68;;;6.60;;
43996;SDS011;34318;45.818;15.964;2024-02-26T05:43:49;7.45;;;6.00;;
43996;SDS011;34318;45.818;15.964;2024-02-26T05:46:17;7.60;;;6.43;;
43996;SDS011;34318;45.818;15.964;2024-02-26T05:48:46;7.85;;;6.05;;
43996;SDS011;34318;45.818;15.964;2024-02-26T05:51:14;7.63;;;6.93;;
43996;SDS011;34318;45.818;15.964;2024-02-26T05:53:41;8.52;;;6.40;;
43996;SDS011;34318;45.818;15.964;2024-02-26T05:56:09;8.10;;;6.28;;
43996;SDS011;34318;45.818;15.964;2024-02-26T05:58:36;8.52;;;7.72;;
43996;SDS011;34318;45.818;15.964;2024-02-26T06:01:04;9.10;;;8.27;;
43996;SDS011;34318;45.818;15.964;2024-02-26T06:03:31;10.52;;;9.38;;
43996;SDS011;34318;45.818;15.964;2024-02-26T06:05:59;12.20;;;10.60;;
43996;SDS011;34318;45.818;15.964;2024-02-26T06:08:26;11.80;;;10.70;;
43996;SDS011;34318;45.818;15.964;2024-02-26T06:10:53;10.48;;;8.32;;
43996;SDS011;34318;45.818;15.964;2024-02-26T06:13:21;12.55;;;9.23;;
43996;SDS011;34318;45.818;15.964;2024-02-26T06:15:48;11.88;;;9.20;;
43996;SDS011;34318;45.818;15.964;2024-02-26T06:18:15;14.18;;;8.68;;
43996;SDS011;34318;45.818;15.964;2024-02-26T06:20:42;15.52;;;8.80;;
43996;SDS011;34318;45.818;15.964;2024-02-26T06:23:10;13.25;;;7.93;;
43996;SDS011;34318;45.818;15.964;2024-02-26T06:25:37;13.35;;;8.27;;
43996;SDS011;34318;45.818;15.964;2024-02-26T06:28:04;8.98;;;7.93;;
43996;SDS011;34318;45.818;15.964;2024-02-26T06:30:32;9.73;;;7.95;;
43996;SDS011;34318;45.818;15.964;2024-02-26T06:32:59;10.57;;;8.15;;
43996;SDS011;34318;45.818;15.964;2024-02-26T06:35:27;9.25;;;7.63;;
43996;SDS011;34318;45.818;15.964;2024-02-26T06:37:54;9.65;;;7.80;;
43996;SDS011;34318;45.818;15.964;2024-02-26T06:40:22;10.23;;;7.80;;
43996;SDS011;34318;45.818;15.964;2024-02-26T06:42:49;10.27;;;7.85;;
43996;SDS011;34318;45.818;15.964;2024-02-26T06:45:17;19.08;;;7.63;;
43996;SDS011;34318;45.818;15.964;2024-02-26T06:47:45;10.13;;;7.85;;
43996;SDS011;34318;45.818;15.964;2024-02-26T06:50:13;9.20;;;7.47;;
43996;SDS011;34318;45.818;15.964;2024-02-26T06:52:40;8.57;;;6.75;;
43996;SDS011;34318;45.818;15.964;2024-02-26T06:55:07;12.23;;;8.05;;
43996;SDS011;34318;45.818;15.964;2024-02-26T06:57:35;12.30;;;7.65;;
43996;SDS011;34318;45.818;15.964;2024-02-26T07:00:02;10.15;;;7.95;;
43996;SDS011;34318;45.818;15.964;2024-02-26T07:02:31;10.88;;;8.52;;
43996;SDS011;34318;45.818;15.964;2024-02-26T07:05:00;10.77;;;9.80;;
43996;SDS011;34318;45.818;15.964;2024-02-26T07:07:29;10.75;;;9.73;;
43996;SDS011;34318;45.818;15.964;2024-02-26T07:09:56;11.70;;;10.60;;
43996;SDS011;34318;45.818;15.964;2024-02-26T07:12:24;13.02;;;11.18;;
43996;SDS011;34318;45.818;15.964;2024-02-26T07:14:51;11.45;;;10.35;;
43996;SDS011;34318;45.818;15.964;2024-02-26T07:17:18;14.07;;;11.32;;
43996;SDS011;34318;45.818;15.964;2024-02-26T07:19:46;10.88;;;9.27;;
43996;SDS011;34318;45.818;15.964;2024-02-26T07:22:13;12.68;;;9.50;;
43996;SDS011;34318;45.818;15.964;2024-02-26T07:24:41;11.75;;;9.38;;
43996;SDS011;34318;45.818;15.964;2024-02-26T07:27:08;12.32;;;9.90;;
43996;SDS011;34318;45.818;15.964;2024-02-26T07:29:35;12.15;;;9.70;;
43996;SDS011;34318;45.818;15.964;2024-02-26T07:32:02;10.52;;;8.60;;
43996;SDS011;34318;45.818;15.964;2024-02-26T07:34:30;10.85;;;9.75;;
43996;SDS011;34318;45.818;15.964;2024-02-26T07:36:57;9.70;;;8.80;;
43996;SDS011;34318;45.818;15.964;2024-02-26T07:39:24;9.25;;;8.35;;
43996;SDS011;34318;45.818;15.964;2024-02-26T07:41:52;9.82;;;8.82;;
43996;SDS011;34318;45.818;15.964;2024-02-26T07:44:20;10.63;;;8.52;;
43996;SDS011;34318;45.818;15.964;2024-02-26T07:46:47;10.95;;;8.35;;
43996;SDS011;34318;45.818;15.964;2024-02-26T07:49:14;9.65;;;8.68;;
43996;SDS011;34318;45.818;15.964;2024-02-26T07:51:50;11.13;;;8.85;;
43996;SDS011;34318;45.818;15.964;2024-02-26T07:54:18;9.88;;;8.27;;
43996;SDS011;34318;45.818;15.964;2024-02-26T07:56:45;11.65;;;8.45;;
43996;SDS011;34318;45.818;15.964;2024-02-26T07:59:13;9.68;;;8.70;;
43996;SDS011;34318;45.818;15.964;2024-02-26T08:01:40;9.82;;;8.82;;
43996;SDS011;34318;45.818;15.964;2024-02-26T08:04:08;9.80;;;8.60;;
43996;SDS011;34318;45.818;15.964;2024-02-26T08:06:37;10.20;;;8.85;;
43996;SDS011;34318;45.818;15.964;2024-02-26T08:09:04;9.93;;;8.93;;
43996;SDS011;34318;45.818;15.964;2024-02-26T08:11:32;11.60;;;9.13;;
43996;SDS011;34318;45.818;15.964;2024-02-26T08:13:59;11.50;;;8.57;;
43996;SDS011;34318;45.818;15.964;2024-02-26T08:16:26;9.52;;;8.43;;
43996;SDS011;34318;45.818;15.964;2024-02-26T08:18:53;10.63;;;8.88;;
43996;SDS011;34318;45.818;15.964;2024-02-26T08:21:21;10.40;;;9.43;;
43996;SDS011;34318;45.818;15.964;2024-02-26T08:23:48;13.38;;;11.38;;
43996;SDS011;34318;45.818;15.964;2024-02-26T08:26:15;13.18;;;10.68;;
43996;SDS011;34318;45.818;15.964;2024-02-26T08:28:42;12.27;;;11.02;;
43996;SDS011;34318;45.818;15.964;2024-02-26T08:31:10;12.68;;;11.43;;
43996;SDS011;34318;45.818;15.964;2024-02-26T08:33:37;12.88;;;11.40;;
43996;SDS011;34318;45.818;15.964;2024-02-26T08:36:05;13.77;;;12.48;;
43996;SDS011;34318;45.818;15.964;2024-02-26T08:38:33;14.45;;;11.90;;
43996;SDS011;34318;45.818;15.964;2024-02-26T08:41:02;14.23;;;12.63;;
43996;SDS011;34318;45.818;15.964;2024-02-26T08:43:29;12.95;;;11.18;;
43996;SDS011;34318;45.818;15.964;2024-02-26T08:45:56;15.27;;;11.60;;
43996;SDS011;34318;45.818;15.964;2024-02-26T08:48:24;12.77;;;10.55;;
43996;SDS011;34318;45.818;15.964;2024-02-26T08:50:51;12.13;;;10.90;;
43996;SDS011;34318;45.818;15.964;2024-02-26T08:53:19;15.75;;;11.45;;
43996;SDS011;34318;45.818;15.964;2024-02-26T08:55:56;11.30;;;10.10;;
43996;SDS011;34318;45.818;15.964;2024-02-26T08:58:24;11.77;;;10.23;;
43996;SDS011;34318;45.818;15.964;2024-02-26T09:00:51;12.23;;;10.13;;
43996;SDS011;34318;45.818;15.964;2024-02-26T09:03:18;10.40;;;9.25;;
43996;SDS011;34318;45.818;15.964;2024-02-26T09:05:45;10.30;;;9.25;;
43996;SDS011;34318;45.818;15.964;2024-02-26T09:08:14;13.30;;;9.63;;
43996;SDS011;34318;45.818;15.964;2024-02-26T09:10:41;12.73;;;9.45;;
43996;SDS011;34318;45.818;15.964;2024-02-26T09:13:09;10.48;;;9.43;;
43996;SDS011;34318;45.818;15.964;2024-02-26T09:15:36;10.40;;;9.30;;
43996;SDS011;34318;45.818;15.964;2024-02-26T09:18:03;11.85;;;9.60;;
43996;SDS011;34318;45.818;15.964;2024-02-26T09:20:31;12.07;;;9.70;;
43996;SDS011;34318;45.818;15.964;2024-02-26T09:22:58;10.43;;;9.30;;
43996;SDS011;34318;45.818;15.964;2024-02-26T09:25:25;11.00;;;9.32;;
43996;SDS011;34318;45.818;15.964;2024-02-26T09:27:52;9.88;;;8.88;;
43996;SDS011;34318;45.818;15.964;2024-02-26T09:30:20;9.23;;;8.32;;
43996;SDS011;34318;45.818;15.964;2024-02-26T09:32:47;11.25;;;9.05;;
43996;SDS011;34318;45.818;15.964;2024-02-26T09:35:14;10.32;;;8.90;;
43996;SDS011;34318;45.818;15.964;2024-02-26T09:37:42;9.88;;;8.88;;
43996;SDS011;34318;45.818;15.964;2024-02-26T09:40:10;10.10;;;7.85;;
43996;SDS011;34318;45.818;15.964;2024-02-26T09:42:41;9.55;;;8.55;;
43996;SDS011;34318;45.818;15.964;2024-02-26T09:45:15;9.32;;;8.15;;
43996;SDS011;34318;45.818;15.964;2024-02-26T09:47:44;11.02;;;8.48;;
43996;SDS011;34318;45.818;15.964;2024-02-26T09:50:16;9.48;;;8.57;;
43996;SDS011;34318;45.818;15.964;2024-02-26T09:52:44;10.68;;;8.52;;
43996;SDS011;34318;45.818;15.964;2024-02-26T09:55:11;8.65;;;7.75;;
43996;SDS011;34318;45.818;15.964;2024-02-26T09:57:40;8.35;;;7.43;;
43996;SDS011;34318;45.818;15.964;2024-02-26T10:00:10;10.73;;;8.05;;
43996;SDS011;34318;45.818;15.964;2024-02-26T10:02:37;8.25;;;7.45;;
43996;SDS011;34318;45.818;15.964;2024-02-26T10:05:05;8.30;;;7.43;;
43996;SDS011;34318;45.818;15.964;2024-02-26T10:07:35;7.80;;;7.03;;
43996;SDS011;34318;45.818;15.964;2024-02-26T10:10:03;8.85;;;7.60;;
43996;SDS011;34318;45.818;15.964;2024-02-26T10:12:30;11.02;;;7.43;;
43996;SDS011;34318;45.818;15.964;2024-02-26T10:14:58;7.65;;;6.85;;
43996;SDS011;34318;45.818;15.964;2024-02-26T10:17:26;7.80;;;7.00;;
43996;SDS011;34318;45.818;15.964;2024-02-26T10:19:54;7.80;;;7.10;;
43996;SDS011;34318;45.818;15.964;2024-02-26T10:22:23;7.55;;;6.78;;
43996;SDS011;34318;45.818;15.964;2024-02-26T10:24:50;7.47;;;6.40;;
43996;SDS011;34318;45.818;15.964;2024-02-26T10:27:17;7.85;;;6.97;;
43996;SDS011;34318;45.818;15.964;2024-02-26T10:29:45;7.13;;;6.43;;
43996;SDS011;34318;45.818;15.964;2024-02-26T10:32:13;7.88;;;6.30;;
43996;SDS011;34318;45.818;15.964;2024-02-26T10:34:41;7.55;;;6.65;;
43996;SDS011;34318;45.818;15.964;2024-02-26T10:37:09;6.72;;;6.07;;
43996;SDS011;34318;45.818;15.964;2024-02-26T10:39:36;8.27;;;6.90;;
43996;SDS011;34318;45.818;15.964;2024-02-26T10:42:04;7.03;;;6.32;;
43996;SDS011;34318;45.818;15.964;2024-02-26T10:44:36;6.90;;;6.20;;
43996;SDS011;34318;45.818;15.964;2024-02-26T10:47:03;6.78;;;6.15;;
43996;SDS011;34318;45.818;15.964;2024-02-26T10:49:30;7.32;;;5.65;;
43996;SDS011;34318;45.818;15.964;2024-02-26T10:51:59;6.72;;;6.00;;
43996;SDS011;34318;45.818;15.964;2024-02-26T10:54:26;7.93;;;6.20;;
43996;SDS011;34318;45.818;15.964;2024-02-26T10:56:56;6.70;;;6.07;;
43996;SDS011;34318;45.818;15.964;2024-02-26T10:59:27;6.13;;;5.57;;
43996;SDS011;34318;45.818;15.964;2024-02-26T11:01:54;8.30;;;5.40;;
43996;SDS011;34318;45.818;15.964;2024-02-26T11:04:22;6.18;;;5.57;;
43996;SDS011;34318;45.818;15.964;2024-02-26T11:06:51;6.15;;;5.38;;
43996;SDS011;34318;45.818;15.964;2024-02-26T11:09:22;5.85;;;5.13;;
43996;SDS011;34318;45.818;15.964;2024-02-26T11:11:50;9.38;;;5.78;;
43996;SDS011;34318;45.818;15.964;2024-02-26T11:14:21;5.43;;;4.93;;
43996;SDS011;34318;45.818;15.964;2024-02-26T11:16:48;12.40;;;5.00;;
43996;SDS011;34318;45.818;15.964;2024-02-26T11:19:16;6.20;;;5.05;;
43996;SDS011;34318;45.818;15.964;2024-02-26T11:21:44;6.90;;;5.03;;
43996;SDS011;34318;45.818;15.964;2024-02-26T11:24:12;7.95;;;4.85;;
43996;SDS011;34318;45.818;15.964;2024-02-26T11:26:45;7.28;;;4.68;;
43996;SDS011;34318;45.818;15.964;2024-02-26T11:29:16;12.52;;;5.82;;
43996;SDS011;34318;45.818;15.964;2024-02-26T11:31:44;10.20;;;5.47;;
43996;SDS011;34318;45.818;15.964;2024-02-26T11:34:11;6.75;;;5.28;;
43996;SDS011;34318;45.818;15.964;2024-02-26T11:36:39;5.93;;;4.75;;
43996;SDS011;34318;45.818;15.964;2024-02-26T11:39:08;9.52;;;5.63;;
43996;SDS011;34318;45.818;15.964;2024-02-26T11:41:39;10.18;;;5.13;;
43996;SDS011;34318;45.818;15.964;2024-02-26T11:44:06;12.20;;;5.57;;
43996;SDS011;34318;45.818;15.964;2024-02-26T11:46:38;9.70;;;5.63;;
43996;SDS011;34318;45.818;15.964;2024-02-26T11:51:53;9.20;;;6.07;;
43996;SDS011;34318;45.818;15.964;2024-02-26T12:00:00;7.95;;;5.80;;
43996;SDS011;34318;45.818;15.964;2024-02-26T12:02:41;6.47;;;5.45;;
43996;SDS011;34318;45.818;15.964;2024-02-26T12:05:15;8.05;;;5.63;;
43996;SDS011;34318;45.818;15.964;2024-02-26T12:07:45;4.97;;;3.65;;
43996;SDS011;34318;45.818;15.964;2024-02-26T12:10:14;60.67;;;30.52;;
43996;SDS011;34318;45.818;15.964;2024-02-26T12:12:42;77.28;;;39.10;;
43996;SDS011;34318;45.818;15.964;2024-02-26T12:15:09;68.32;;;33.50;;
43996;SDS011;34318;45.818;15.964;2024-02-26T12:17:37;59.72;;;29.10;;
43996;SDS011;34318;45.818;15.964;2024-02-26T12:20:09;53.95;;;25.13;;
43996;SDS011;34318;45.818;15.964;2024-02-26T12:22:37;53.45;;;26.80;;
43996;SDS011;34318;45.818;15.964;2024-02-26T12:25:08;43.85;;;27.17;;
43996;SDS011;34318;45.818;15.964;2024-02-26T12:27:36;45.17;;;28.83;;
43996;SDS011;34318;45.818;15.964;2024-02-26T12:30:03;47.60;;;27.90;;
43996;SDS011;34318;45.818;15.964;2024-02-26T12:32:32;40.42;;;22.73;;
43996;SDS011;34318;45.818;15.964;2024-02-26T12:35:00;34.88;;;22.25;;
43996;SDS011;34318;45.818;15.964;2024-02-26T12:37:27;30.15;;;19.58;;
43996;SDS011;34318;45.818;15.964;2024-02-26T12:39:55;25.95;;;16.88;;
43996;SDS011;34318;45.818;15.964;2024-02-26T12:42:22;28.02;;;18.10;;
43996;SDS011;34318;45.818;15.964;2024-02-26T12:44:50;27.08;;;18.00;;
43996;SDS011;34318;45.818;15.964;2024-02-26T12:47:17;31.35;;;21.08;;
43996;SDS011;34318;45.818;15.964;2024-02-26T12:49:48;27.88;;;20.33;;
43996;SDS011;34318;45.818;15.964;2024-02-26T12:52:16;24.15;;;18.73;;
43996;SDS011;34318;45.818;15.964;2024-02-26T12:54:44;25.20;;;17.98;;
43996;SDS011;34318;45.818;15.964;2024-02-26T12:57:11;22.75;;;17.90;;
43996;SDS011;34318;45.818;15.964;2024-02-26T12:59:39;27.15;;;17.33;;
43996;SDS011;34318;45.818;15.964;2024-02-26T13:02:06;24.15;;;17.45;;
43996;SDS011;34318;45.818;15.964;2024-02-26T13:04:34;21.85;;;16.73;;
43996;SDS011;34318;45.818;15.964;2024-02-26T13:07:03;26.77;;;17.02;;
43996;SDS011;34318;45.818;15.964;2024-02-26T13:09:32;20.52;;;15.45;;
43996;SDS011;34318;45.818;15.964;2024-02-26T13:12:03;19.48;;;15.02;;
43996;SDS011;34318;45.818;15.964;2024-02-26T13:14:31;25.85;;;15.93;;
43996;SDS011;34318;45.818;15.964;2024-02-26T13:17:00;22.95;;;15.35;;
43996;SDS011;34318;45.818;15.964;2024-02-26T13:19:28;18.73;;;15.25;;
43996;SDS011;34318;45.818;15.964;2024-02-26T13:22:02;20.75;;;13.88;;
43996;SDS011;34318;45.818;15.964;2024-02-26T13:24:30;22.17;;;13.48;;
43996;SDS011;34318;45.818;15.964;2024-02-26T13:26:57;19.17;;;13.48;;
43996;SDS011;34318;45.818;15.964;2024-02-26T13:29:25;17.92;;;13.30;;
43996;SDS011;34318;45.818;15.964;2024-02-26T13:31:55;24.13;;;13.88;;
43996;SDS011;34318;45.818;15.964;2024-02-26T13:34:25;20.25;;;13.50;;
43996;SDS011;34318;45.818;15.964;2024-02-26T13:36:53;20.77;;;14.00;;
43996;SDS011;34318;45.818;15.964;2024-02-26T13:39:24;20.45;;;13.05;;
43996;SDS011;34318;45.818;15.964;2024-02-26T13:41:52;19.27;;;13.95;;
43996;SDS011;34318;45.818;15.964;2024-02-26T13:44:20;19.70;;;12.98;;
43996;SDS011;34318;45.818;15.964;2024-02-26T13:46:47;22.63;;;13.25;;
43996;SDS011;34318;45.818;15.964;2024-02-26T13:49:15;16.00;;;12.13;;
43996;SDS011;34318;45.818;15.964;2024-02-26T13:51:43;16.38;;;12.38;;
43996;SDS011;34318;45.818;15.964;2024-02-26T13:54:13;18.13;;;11.77;;
43996;SDS011;34318;45.818;15.964;2024-02-26T13:56:41;20.40;;;12.25;;
43996;SDS011;34318;45.818;15.964;2024-02-26T13:59:12;21.02;;;13.38;;
43996;SDS011;34318;45.818;15.964;2024-02-26T14:01:39;21.92;;;14.80;;
43996;SDS011;34318;45.818;15.964;2024-02-26T14:04:07;25.38;;;22.75;;
43996;SDS011;34318;45.818;15.964;2024-02-26T14:06:36;29.27;;;24.67;;
43996;SDS011;34318;45.818;15.964;2024-02-26T14:09:03;29.80;;;26.15;;
43996;SDS011;34318;45.818;15.964;2024-02-26T14:11:31;29.88;;;25.50;;
43996;SDS011;34318;45.818;15.964;2024-02-26T14:13:58;27.33;;;24.42;;
43996;SDS011;34318;45.818;15.964;2024-02-26T14:16:25;27.63;;;24.17;;
43996;SDS011;34318;45.818;15.964;2024-02-26T14:18:55;27.80;;;24.00;;
43996;SDS011;34318;45.818;15.964;2024-02-26T14:21:23;26.17;;;21.63;;
43996;SDS011;34318;45.818;15.964;2024-02-26T14:23:50;24.50;;;21.85;;
43996;SDS011;34318;45.818;15.964;2024-02-26T14:26:17;25.00;;;21.38;;
43996;SDS011;34318;45.818;15.964;2024-02-26T14:28:45;22.85;;;20.33;;
43996;SDS011;34318;45.818;15.964;2024-02-26T14:31:12;25.73;;;20.65;;
43996;SDS011;34318;45.818;15.964;2024-02-26T14:33:39;25.67;;;20.02;;